Billings Logan International Airport
KBIL : now visible

Airfield :











YOU CAN JOIN US ON...

 
LOGIN :

Register | Disclaimer

   EN    FR    IT 

 









Legend :    VFR   Marginal VFR   IFR   Intensive IFR   Very Intensive IFR
Visi :
Ceiling :
>= 8 km
>= 3000ft
5 to 8 km
1000 to 3000 ft
1500m to 5 km
500 to 1000 ft
800 to 1500m
200 to 500 ft
< 800m
< 200 ft
Symbols :   Thunderstorms  Fog  Heavy snow  Heavy precipitations  Wind > 20 kt






- Airport Elevation : 3652 ft
- IATA code : BIL


KBIL - Billings Logan International

CURRENT METAR :
  • 010453Z 27022G28KT 10SM BKN170 04/M05 A2992 RMK AO2 PK WND 27028/0450 SLP144 T00441050

EXPIRED METARs :
  • 010353Z 28018G29KT 10SM BKN100 BKN140 04/M04 A2990 RMK AO2 PK WND 30038/0328 SLP138 T00441044
  • 010253Z 30023G29KT 10SM SCT090 BKN150 05/M06 A2988 RMK AO2 PK WND 32034/0221 SLP135 T00501056 53029
  • 010153Z 26017KT 10SM BKN120 09/M14 A2983 RMK AO2 SLP109 T00891139

TAF KBIL
Valid from the 01 at 04:00 until the 02 at 00:00 UTC


010331Z 0104/0124 30020G29KT P6SM FEW250
FM010600 27015KT P6SM BKN100 WS020/28045KT
FM011300 31017G28KT P6SM BKN030
FM011700 30013G20KT P6SM SCT080
KZLC FIR / North America



MET'MAP, your aeronautical weather chart ! - Copyright ORBIFLY December 2007 - Disclaimer

ORBIFLY MET'MAP TEAM :

Programming & Development : Alexandra Zaïnal
Concept & original design : Baudouin d'Aumeries
Assistance for programming : Marc-Olivier Méhu
Technical & hardware support : Manuel Goepfert

Contact : metmap@orbifly.com




SOURCES & CREDITS :

   NOAA       Earth
Advisory